LHA14L EDDB-EKCH
Flight info
| Callsign | LHA14L |
|---|---|
| Flight time | 0h 43m |
| Altitude | 34000 |
| Route | GERGA4N GERGA M725 LABES T298 MONAK |
| Aircraft | A320/M-SDE1E2FGIRWYZE3/LB1 |
Departure
| Time | 2026-05-04 17:23 |
|---|---|
| Airport | Berlin Brandenburg Airport (EDDB) |
Arrival
| Time | 2026-05-04 18:06 |
|---|---|
| Airport | Copenhagen Kastrup Airport (EKCH) |
| Time | Latitude | Longitude | Altitude | Speed | Heading |
|---|---|---|---|---|---|
| 2026-05-04 17:00 | 52.36047 | 13.50973 | 155 ft | 0 kts | 5° |
| 2026-05-04 17:17 | 52.36044 | 13.50973 | 155 ft | 3 kts | 5° |
| 2026-05-04 17:17 | 52.35967 | 13.50982 | 156 ft | 4 kts | 309° |
| 2026-05-04 17:18 | 52.35961 | 13.51006 | 156 ft | 0 kts | 249° |
| 2026-05-04 17:20 | 52.35927 | 13.50866 | 154 ft | 8 kts | 249° |
| 2026-05-04 17:20 | 52.35819 | 13.50795 | 151 ft | 12 kts | 158° |
| 2026-05-04 17:20 | 52.35739 | 13.50840 | 151 ft | 11 kts | 172° |
| 2026-05-04 17:21 | 52.35581 | 13.50689 | 154 ft | 14 kts | 219° |
| 2026-05-04 17:21 | 52.35423 | 13.50481 | 158 ft | 15 kts | 218° |
| 2026-05-04 17:22 | 52.35366 | 13.50311 | 156 ft | 24 kts | 248° |
| 2026-05-04 17:22 | 52.35215 | 13.49674 | 157 ft | 94 kts | 249° |
| 2026-05-04 17:23 | 52.34045 | 13.45144 | 1371 ft | 156 kts | 239° |
| 2026-05-04 17:23 | 52.33357 | 13.43676 | 1795 ft | 173 kts | 228° |
| 2026-05-04 17:23 | 52.31546 | 13.40368 | 2415 ft | 218 kts | 228° |
| 2026-05-04 17:24 | 52.30515 | 13.38478 | 3127 ft | 225 kts | 228° |
| 2026-05-04 17:24 | 52.27383 | 13.32611 | 5444 ft | 244 kts | 238° |
| 2026-05-04 17:25 | 52.26881 | 13.29868 | 5909 ft | 265 kts | 269° |
| 2026-05-04 17:25 | 52.28841 | 13.24864 | 7449 ft | 286 kts | 334° |
| 2026-05-04 17:26 | 52.32866 | 13.24608 | 9124 ft | 298 kts | 6° |
| 2026-05-04 17:26 | 52.39317 | 13.26430 | 10644 ft | 343 kts | 8° |
| 2026-05-04 17:27 | 52.44244 | 13.27755 | 11585 ft | 367 kts | 7° |
| 2026-05-04 17:27 | 52.49354 | 13.29004 | 13010 ft | 375 kts | 6° |
| 2026-05-04 17:28 | 52.54573 | 13.30242 | 14349 ft | 383 kts | 6° |
| 2026-05-04 17:29 | 52.62603 | 13.32162 | 16159 ft | 395 kts | 6° |
| 2026-05-04 17:29 | 52.70877 | 13.34179 | 17932 ft | 406 kts | 6° |
| 2026-05-04 17:30 | 52.79358 | 13.36247 | 19490 ft | 415 kts | 5° |
| 2026-05-04 17:31 | 52.85110 | 13.37493 | 20401 ft | 417 kts | 357° |
| 2026-05-04 17:31 | 52.93468 | 13.34304 | 21839 ft | 417 kts | 340° |
| 2026-05-04 17:32 | 52.99058 | 13.31550 | 22769 ft | 422 kts | 339° |
| 2026-05-04 17:33 | 53.07599 | 13.27349 | 24024 ft | 430 kts | 339° |
| 2026-05-04 17:33 | 53.10479 | 13.25940 | 24404 ft | 432 kts | 339° |
| 2026-05-04 17:34 | 53.18478 | 13.19357 | 25521 ft | 429 kts | 325° |
| 2026-05-04 17:34 | 53.21070 | 13.16857 | 25898 ft | 431 kts | 325° |
| 2026-05-04 17:35 | 53.28919 | 13.09315 | 26906 ft | 436 kts | 325° |
| 2026-05-04 17:35 | 53.34183 | 13.04281 | 26960 ft | 435 kts | 325° |
| 2026-05-04 17:35 | 53.36814 | 13.01774 | 26965 ft | 435 kts | 325° |
| 2026-05-04 17:36 | 53.39442 | 12.99273 | 26967 ft | 435 kts | 325° |
| 2026-05-04 17:36 | 53.42072 | 12.96773 | 26966 ft | 435 kts | 325° |
| 2026-05-04 17:36 | 53.44712 | 12.94267 | 27179 ft | 437 kts | 325° |
| 2026-05-04 17:36 | 53.47365 | 12.91752 | 27559 ft | 439 kts | 325° |
| 2026-05-04 17:37 | 53.49990 | 12.89268 | 27891 ft | 440 kts | 325° |
| 2026-05-04 17:37 | 53.52664 | 12.86745 | 28224 ft | 442 kts | 325° |
| 2026-05-04 17:37 | 53.55363 | 12.84205 | 28556 ft | 444 kts | 325° |
| 2026-05-04 17:37 | 53.58071 | 12.81664 | 28866 ft | 446 kts | 325° |
| 2026-05-04 17:38 | 53.60763 | 12.79151 | 29545 ft | 438 kts | 325° |
| 2026-05-04 17:38 | 53.63419 | 12.76696 | 30211 ft | 433 kts | 325° |
| 2026-05-04 17:38 | 53.66052 | 12.74281 | 30697 ft | 429 kts | 325° |
| 2026-05-04 17:38 | 53.68665 | 12.71887 | 31149 ft | 427 kts | 325° |
| 2026-05-04 17:39 | 53.73860 | 12.67118 | 31901 ft | 424 kts | 325° |
| 2026-05-04 17:39 | 53.79014 | 12.62382 | 31976 ft | 421 kts | 325° |
| 2026-05-04 17:40 | 53.84297 | 12.58028 | 31976 ft | 430 kts | 339° |
| 2026-05-04 17:40 | 53.90288 | 12.56387 | 31975 ft | 438 kts | 346° |
| 2026-05-04 17:41 | 53.96323 | 12.55000 | 31981 ft | 438 kts | 346° |
| 2026-05-04 17:41 | 54.02359 | 12.53618 | 31977 ft | 437 kts | 345° |
| 2026-05-04 17:42 | 54.08383 | 12.52193 | 31983 ft | 437 kts | 345° |
| 2026-05-04 17:42 | 54.14408 | 12.50759 | 31992 ft | 437 kts | 345° |
| 2026-05-04 17:43 | 54.20439 | 12.49323 | 31604 ft | 438 kts | 345° |
| 2026-05-04 17:43 | 54.23456 | 12.48605 | 31204 ft | 438 kts | 345° |
| 2026-05-04 17:43 | 54.26481 | 12.47886 | 30804 ft | 439 kts | 345° |
| 2026-05-04 17:44 | 54.29507 | 12.47164 | 30418 ft | 440 kts | 344° |
| 2026-05-04 17:44 | 54.32539 | 12.46430 | 30020 ft | 441 kts | 344° |
| 2026-05-04 17:44 | 54.35581 | 12.45696 | 29573 ft | 442 kts | 344° |
| 2026-05-04 17:44 | 54.38631 | 12.44968 | 29128 ft | 443 kts | 345° |
| 2026-05-04 17:45 | 54.41737 | 12.44811 | 28675 ft | 453 kts | 359° |
| 2026-05-04 17:45 | 54.44826 | 12.45484 | 28060 ft | 452 kts | 1° |
| 2026-05-04 17:45 | 54.47892 | 12.46224 | 27440 ft | 437 kts | 1° |
| 2026-05-04 17:45 | 54.50852 | 12.46977 | 26868 ft | 422 kts | 1° |
| 2026-05-04 17:46 | 54.53708 | 12.47708 | 26307 ft | 408 kts | 1° |
| 2026-05-04 17:46 | 54.56475 | 12.48405 | 25764 ft | 396 kts | 1° |
| 2026-05-04 17:46 | 54.59161 | 12.49070 | 25229 ft | 385 kts | 0° |
| 2026-05-04 17:46 | 54.61792 | 12.49712 | 24697 ft | 378 kts | 0° |
| 2026-05-04 17:47 | 54.64379 | 12.50335 | 24179 ft | 374 kts | 0° |
| 2026-05-04 17:47 | 54.66948 | 12.50952 | 23663 ft | 371 kts | 1° |
| 2026-05-04 17:47 | 54.69491 | 12.51570 | 23055 ft | 368 kts | 1° |
| 2026-05-04 17:47 | 54.72013 | 12.52187 | 22427 ft | 363 kts | 1° |
| 2026-05-04 17:48 | 54.74500 | 12.52802 | 21815 ft | 359 kts | 2° |
| 2026-05-04 17:48 | 54.76959 | 12.53412 | 21221 ft | 355 kts | 2° |
| 2026-05-04 17:48 | 54.79395 | 12.54015 | 20632 ft | 352 kts | 2° |
| 2026-05-04 17:48 | 54.81807 | 12.54612 | 20060 ft | 349 kts | 2° |
| 2026-05-04 17:49 | 54.84218 | 12.55207 | 19494 ft | 349 kts | 2° |
| 2026-05-04 17:49 | 54.86616 | 12.55797 | 18941 ft | 346 kts | 2° |
| 2026-05-04 17:49 | 54.88983 | 12.56381 | 18396 ft | 341 kts | 3° |
| 2026-05-04 17:49 | 54.91311 | 12.56961 | 17799 ft | 336 kts | 3° |
| 2026-05-04 17:50 | 54.93604 | 12.57536 | 17187 ft | 331 kts | 3° |
| 2026-05-04 17:50 | 54.95873 | 12.58104 | 16592 ft | 328 kts | 3° |
| 2026-05-04 17:50 | 54.98120 | 12.58662 | 15994 ft | 325 kts | 3° |
| 2026-05-04 17:50 | 55.00348 | 12.59213 | 15419 ft | 322 kts | 3° |
| 2026-05-04 17:51 | 55.02555 | 12.59759 | 14851 ft | 319 kts | 3° |
| 2026-05-04 17:51 | 55.04747 | 12.60305 | 14295 ft | 317 kts | 3° |
| 2026-05-04 17:51 | 55.06920 | 12.60847 | 13740 ft | 314 kts | 3° |
| 2026-05-04 17:51 | 55.09077 | 12.61386 | 13138 ft | 311 kts | 3° |
| 2026-05-04 17:52 | 55.11206 | 12.61922 | 12568 ft | 307 kts | 3° |
| 2026-05-04 17:52 | 55.13297 | 12.62456 | 12103 ft | 300 kts | 3° |
| 2026-05-04 17:52 | 55.15334 | 12.62978 | 11690 ft | 292 kts | 3° |
| 2026-05-04 17:52 | 55.17289 | 12.63473 | 11295 ft | 284 kts | 3° |
| 2026-05-04 17:53 | 55.19219 | 12.63958 | 10911 ft | 277 kts | 3° |
| 2026-05-04 17:53 | 55.20494 | 12.64279 | 10680 ft | 271 kts | 3° |
| 2026-05-04 17:53 | 55.22915 | 12.64909 | 10198 ft | 263 kts | 6° |
| 2026-05-04 17:53 | 55.24674 | 12.65785 | 9758 ft | 263 kts | 13° |
| 2026-05-04 17:54 | 55.26405 | 12.66775 | 9263 ft | 260 kts | 13° |
| 2026-05-04 17:54 | 55.27565 | 12.67438 | 8994 ft | 260 kts | 13° |
| 2026-05-04 17:54 | 55.29277 | 12.68417 | 8950 ft | 259 kts | 13° |
| 2026-05-04 17:54 | 55.30989 | 12.69390 | 8956 ft | 259 kts | 13° |
| 2026-05-04 17:55 | 55.32696 | 12.70361 | 8797 ft | 256 kts | 13° |
| 2026-05-04 17:55 | 55.34393 | 12.71324 | 8480 ft | 256 kts | 13° |
| 2026-05-04 17:55 | 55.36088 | 12.72288 | 8178 ft | 255 kts | 13° |
| 2026-05-04 17:55 | 55.37772 | 12.73246 | 7902 ft | 254 kts | 13° |
| 2026-05-04 17:56 | 55.39444 | 12.74206 | 7614 ft | 252 kts | 13° |
| 2026-05-04 17:56 | 55.41109 | 12.75166 | 7333 ft | 251 kts | 13° |
| 2026-05-04 17:56 | 55.42763 | 12.76121 | 7059 ft | 249 kts | 13° |
| 2026-05-04 17:56 | 55.44409 | 12.77069 | 6778 ft | 248 kts | 13° |
| 2026-05-04 17:57 | 55.46047 | 12.78008 | 6502 ft | 247 kts | 13° |
| 2026-05-04 17:57 | 55.47661 | 12.78930 | 6233 ft | 246 kts | 13° |
| 2026-05-04 17:57 | 55.49296 | 12.79866 | 5940 ft | 244 kts | 13° |
| 2026-05-04 17:57 | 55.50905 | 12.80791 | 5656 ft | 242 kts | 13° |
| 2026-05-04 17:58 | 55.52503 | 12.81711 | 5383 ft | 240 kts | 13° |
| 2026-05-04 17:58 | 55.54087 | 12.82625 | 5100 ft | 239 kts | 14° |
| 2026-05-04 17:58 | 55.55664 | 12.83538 | 4817 ft | 238 kts | 14° |
| 2026-05-04 17:58 | 55.57213 | 12.84548 | 4548 ft | 237 kts | 17° |
| 2026-05-04 17:59 | 55.58724 | 12.85694 | 4265 ft | 236 kts | 20° |
| 2026-05-04 17:59 | 55.60215 | 12.86890 | 4043 ft | 234 kts | 20° |
| 2026-05-04 17:59 | 55.63184 | 12.89285 | 4007 ft | 235 kts | 20° |
| 2026-05-04 18:00 | 55.64670 | 12.90485 | 4007 ft | 234 kts | 20° |
| 2026-05-04 18:00 | 55.66152 | 12.91684 | 4008 ft | 234 kts | 20° |
| 2026-05-04 18:00 | 55.67637 | 12.92877 | 4007 ft | 234 kts | 18° |
| 2026-05-04 18:00 | 55.69151 | 12.93616 | 4004 ft | 218 kts | 7° |
| 2026-05-04 18:01 | 55.70607 | 12.94100 | 4006 ft | 210 kts | 6° |
| 2026-05-04 18:01 | 55.72043 | 12.94552 | 4006 ft | 209 kts | 5° |
| 2026-05-04 18:01 | 55.73447 | 12.94425 | 3899 ft | 199 kts | 334° |
| 2026-05-04 18:02 | 55.74831 | 12.90806 | 3368 ft | 193 kts | 279° |
| 2026-05-04 18:02 | 55.74839 | 12.88425 | 3105 ft | 194 kts | 264° |
| 2026-05-04 18:02 | 55.74501 | 12.86102 | 3006 ft | 197 kts | 247° |
| 2026-05-04 18:02 | 55.73711 | 12.84147 | 2927 ft | 195 kts | 226° |
| 2026-05-04 18:03 | 55.72693 | 12.82555 | 2714 ft | 195 kts | 225° |
| 2026-05-04 18:03 | 55.71684 | 12.80985 | 2467 ft | 196 kts | 225° |
| 2026-05-04 18:03 | 55.70659 | 12.79387 | 2216 ft | 195 kts | 225° |
| 2026-05-04 18:03 | 55.69653 | 12.77821 | 1937 ft | 189 kts | 225° |
| 2026-05-04 18:04 | 55.68695 | 12.76330 | 1679 ft | 176 kts | 225° |
| 2026-05-04 18:04 | 55.67811 | 12.74956 | 1447 ft | 164 kts | 225° |
| 2026-05-04 18:04 | 55.66109 | 12.72304 | 1013 ft | 158 kts | 225° |
| 2026-05-04 18:05 | 55.65312 | 12.71067 | 799 ft | 145 kts | 225° |
| 2026-05-04 18:05 | 55.64577 | 12.69925 | 589 ft | 138 kts | 225° |
| 2026-05-04 18:05 | 55.63862 | 12.68812 | 398 ft | 136 kts | 225° |
| 2026-05-04 18:05 | 55.63152 | 12.67712 | 219 ft | 136 kts | 225° |
| 2026-05-04 18:06 | 55.61815 | 12.65626 | 25 ft | 100 kts | 221° |
| 2026-05-04 18:06 | 55.61466 | 12.65087 | 23 ft | 47 kts | 221° |
| 2026-05-04 18:06 | 55.61305 | 12.64794 | 25 ft | 29 kts | 238° |
| 2026-05-04 18:07 | 55.61229 | 12.64469 | 24 ft | 22 kts | 251° |
| 2026-05-04 18:07 | 55.61193 | 12.64285 | 24 ft | 14 kts | 251° |
| 2026-05-04 18:07 | 55.61218 | 12.64127 | 25 ft | 15 kts | 323° |
| 2026-05-04 18:07 | 55.61319 | 12.64155 | 25 ft | 16 kts | 31° |
| 2026-05-04 18:08 | 55.61413 | 12.64263 | 24 ft | 16 kts | 33° |
| 2026-05-04 18:08 | 55.61504 | 12.64367 | 25 ft | 15 kts | 33° |
| 2026-05-04 18:08 | 55.61587 | 12.64463 | 24 ft | 14 kts | 33° |
| 2026-05-04 18:08 | 55.61680 | 12.64569 | 24 ft | 20 kts | 33° |
| 2026-05-04 18:09 | 55.61931 | 12.64857 | 26 ft | 23 kts | 33° |
| 2026-05-04 18:09 | 55.62112 | 12.65067 | 24 ft | 8 kts | 33° |
| 2026-05-04 18:10 | 55.62119 | 12.65074 | 26 ft | 0 kts | 33° |
| 2026-05-04 18:11 | 55.62119 | 12.65075 | 26 ft | 1 kts | 33° |
| 2026-05-04 18:11 | 55.62155 | 12.65116 | 25 ft | 9 kts | 33° |
| 2026-05-04 18:11 | 55.62206 | 12.65173 | 26 ft | 9 kts | 27° |
| 2026-05-04 18:12 | 55.62259 | 12.65125 | 24 ft | 14 kts | 305° |
| 2026-05-04 18:12 | 55.62319 | 12.64964 | 24 ft | 17 kts | 303° |
| 2026-05-04 18:12 | 55.62385 | 12.64783 | 24 ft | 18 kts | 302° |
| 2026-05-04 18:12 | 55.62434 | 12.64652 | 24 ft | 10 kts | 303° |
| 2026-05-04 18:13 | 55.62475 | 12.64541 | 24 ft | 12 kts | 303° |
| 2026-05-04 18:13 | 55.62524 | 12.64409 | 24 ft | 14 kts | 303° |
| 2026-05-04 18:13 | 55.62630 | 12.64128 | 25 ft | 7 kts | 315° |
| 2026-05-04 18:14 | 55.62677 | 12.64137 | 24 ft | 7 kts | 31° |
| 2026-05-04 18:14 | 55.62700 | 12.64164 | 25 ft | 2 kts | 32° |
| 2026-05-04 18:14 | 55.62701 | 12.64165 | 25 ft | 0 kts | 32° |